sensor_id;sensor_type;location;lat;lon;timestamp;temperature;humidity
212;DHT22;16228;48.800;9.002;2023-05-07T00:01:45;11.90;96.90
212;DHT22;16228;48.800;9.002;2023-05-07T00:04:12;11.90;96.90
212;DHT22;16228;48.800;9.002;2023-05-07T00:06:41;11.90;96.90
212;DHT22;16228;48.800;9.002;2023-05-07T00:09:08;11.80;96.90
212;DHT22;16228;48.800;9.002;2023-05-07T00:11:35;11.80;96.90
212;DHT22;16228;48.800;9.002;2023-05-07T00:14:02;11.80;96.90
212;DHT22;16228;48.800;9.002;2023-05-07T00:16:29;11.80;96.90
212;DHT22;16228;48.800;9.002;2023-05-07T00:18:56;11.80;96.90
212;DHT22;16228;48.800;9.002;2023-05-07T00:21:23;11.80;96.90
212;DHT22;16228;48.800;9.002;2023-05-07T00:23:53;11.80;96.90
212;DHT22;16228;48.800;9.002;2023-05-07T00:26:21;11.70;96.90
212;DHT22;16228;48.800;9.002;2023-05-07T00:28:49;11.70;96.90
212;DHT22;16228;48.800;9.002;2023-05-07T00:31:16;11.70;96.90
212;DHT22;16228;48.800;9.002;2023-05-07T00:33:43;11.70;96.90
212;DHT22;16228;48.800;9.002;2023-05-07T00:36:10;11.70;96.90
212;DHT22;16228;48.800;9.002;2023-05-07T00:38:37;11.70;96.90
212;DHT22;16228;48.800;9.002;2023-05-07T00:41:06;11.70;96.90
212;DHT22;16228;48.800;9.002;2023-05-07T00:43:33;11.60;96.90
212;DHT22;16228;48.800;9.002;2023-05-07T00:46:01;11.60;96.90
212;DHT22;16228;48.800;9.002;2023-05-07T00:48:28;11.60;96.90
212;DHT22;16228;48.800;9.002;2023-05-07T00:50:57;11.60;96.90
212;DHT22;16228;48.800;9.002;2023-05-07T00:53:24;11.60;96.90
212;DHT22;16228;48.800;9.002;2023-05-07T00:55:52;11.60;96.90
212;DHT22;16228;48.800;9.002;2023-05-07T00:58:21;11.70;96.90
212;DHT22;16228;48.800;9.002;2023-05-07T01:00:48;11.70;96.90
212;DHT22;16228;48.800;9.002;2023-05-07T01:03:15;11.60;96.90
212;DHT22;16228;48.800;9.002;2023-05-07T01:05:43;11.60;96.90
212;DHT22;16228;48.800;9.002;2023-05-07T01:08:12;11.50;96.90
212;DHT22;16228;48.800;9.002;2023-05-07T01:10:44;11.50;96.90
212;DHT22;16228;48.800;9.002;2023-05-07T01:13:12;11.50;96.90
212;DHT22;16228;48.800;9.002;2023-05-07T01:15:42;11.40;96.90
212;DHT22;16228;48.800;9.002;2023-05-07T01:18:10;11.40;96.90
212;DHT22;16228;48.800;9.002;2023-05-07T01:20:37;11.30;96.90
212;DHT22;16228;48.800;9.002;2023-05-07T01:23:07;11.30;96.90
212;DHT22;16228;48.800;9.002;2023-05-07T01:25:34;11.30;96.90
212;DHT22;16228;48.800;9.002;2023-05-07T01:28:01;11.30;96.90
212;DHT22;16228;48.800;9.002;2023-05-07T01:30:29;11.30;96.90
212;DHT22;16228;48.800;9.002;2023-05-07T01:33:00;11.30;96.90
212;DHT22;16228;48.800;9.002;2023-05-07T01:35:32;11.30;96.90
212;DHT22;16228;48.800;9.002;2023-05-07T01:38:00;11.30;96.90
212;DHT22;16228;48.800;9.002;2023-05-07T01:40:31;11.30;96.90
212;DHT22;16228;48.800;9.002;2023-05-07T01:42:58;11.30;96.90
212;DHT22;16228;48.800;9.002;2023-05-07T01:45:26;11.30;96.90
212;DHT22;16228;48.800;9.002;2023-05-07T01:47:55;11.40;96.90
212;DHT22;16228;48.800;9.002;2023-05-07T01:50:23;11.50;96.90
212;DHT22;16228;48.800;9.002;2023-05-07T01:52:50;11.40;96.90
212;DHT22;16228;48.800;9.002;2023-05-07T01:55:18;11.40;96.90
212;DHT22;16228;48.800;9.002;2023-05-07T01:57:46;11.50;96.90
212;DHT22;16228;48.800;9.002;2023-05-07T02:00:14;11.60;96.90
212;DHT22;16228;48.800;9.002;2023-05-07T02:02:41;11.70;96.90
212;DHT22;16228;48.800;9.002;2023-05-07T02:05:08;11.70;96.90
212;DHT22;16228;48.800;9.002;2023-05-07T02:07:36;11.80;96.90
212;DHT22;16228;48.800;9.002;2023-05-07T02:10:03;11.80;96.90
212;DHT22;16228;48.800;9.002;2023-05-07T02:12:30;11.80;96.90
212;DHT22;16228;48.800;9.002;2023-05-07T02:14:59;11.90;96.90
212;DHT22;16228;48.800;9.002;2023-05-07T02:17:27;11.90;96.90
212;DHT22;16228;48.800;9.002;2023-05-07T02:19:57;12.00;96.90
212;DHT22;16228;48.800;9.002;2023-05-07T02:22:24;11.90;96.90
212;DHT22;16228;48.800;9.002;2023-05-07T02:24:52;11.90;96.90
212;DHT22;16228;48.800;9.002;2023-05-07T02:27:19;11.80;96.90
212;DHT22;16228;48.800;9.002;2023-05-07T02:29:46;11.80;96.90
212;DHT22;16228;48.800;9.002;2023-05-07T02:32:14;11.70;96.90
212;DHT22;16228;48.800;9.002;2023-05-07T02:34:42;11.60;96.90
212;DHT22;16228;48.800;9.002;2023-05-07T02:37:09;11.60;96.90
212;DHT22;16228;48.800;9.002;2023-05-07T02:39:36;11.50;96.90
212;DHT22;16228;48.800;9.002;2023-05-07T02:42:03;11.50;96.90
212;DHT22;16228;48.800;9.002;2023-05-07T02:44:30;11.40;96.90
212;DHT22;16228;48.800;9.002;2023-05-07T02:46:57;11.40;96.90
212;DHT22;16228;48.800;9.002;2023-05-07T02:49:26;11.30;96.90
212;DHT22;16228;48.800;9.002;2023-05-07T02:51:53;11.20;96.90
212;DHT22;16228;48.800;9.002;2023-05-07T02:54:21;11.20;96.90
212;DHT22;16228;48.800;9.002;2023-05-07T02:56:48;11.10;96.90
212;DHT22;16228;48.800;9.002;2023-05-07T02:59:15;11.10;96.90
212;DHT22;16228;48.800;9.002;2023-05-07T03:01:42;11.00;96.90
212;DHT22;16228;48.800;9.002;2023-05-07T03:04:10;11.00;96.90
212;DHT22;16228;48.800;9.002;2023-05-07T03:06:39;11.00;96.90
212;DHT22;16228;48.800;9.002;2023-05-07T03:09:07;10.90;96.90
212;DHT22;16228;48.800;9.002;2023-05-07T03:11:34;10.90;96.90
212;DHT22;16228;48.800;9.002;2023-05-07T03:14:02;10.80;96.90
212;DHT22;16228;48.800;9.002;2023-05-07T03:16:29;10.70;96.90
212;DHT22;16228;48.800;9.002;2023-05-07T03:18:56;10.70;96.90
212;DHT22;16228;48.800;9.002;2023-05-07T03:21:23;10.70;96.90
212;DHT22;16228;48.800;9.002;2023-05-07T03:23:53;10.70;96.90
212;DHT22;16228;48.800;9.002;2023-05-07T03:26:20;10.70;96.90
212;DHT22;16228;48.800;9.002;2023-05-07T03:28:47;10.70;96.90
212;DHT22;16228;48.800;9.002;2023-05-07T03:31:15;10.60;96.90
212;DHT22;16228;48.800;9.002;2023-05-07T03:33:50;10.60;96.90
212;DHT22;16228;48.800;9.002;2023-05-07T03:36:17;10.50;96.90
212;DHT22;16228;48.800;9.002;2023-05-07T03:38:45;10.50;96.90
212;DHT22;16228;48.800;9.002;2023-05-07T03:41:13;10.50;96.90
212;DHT22;16228;48.800;9.002;2023-05-07T03:43:40;10.50;96.90
212;DHT22;16228;48.800;9.002;2023-05-07T03:46:08;10.50;96.90
212;DHT22;16228;48.800;9.002;2023-05-07T03:48:35;10.40;96.90
212;DHT22;16228;48.800;9.002;2023-05-07T03:51:02;10.40;96.90
212;DHT22;16228;48.800;9.002;2023-05-07T03:53:30;10.40;96.90
212;DHT22;16228;48.800;9.002;2023-05-07T03:55:57;10.30;96.90
212;DHT22;16228;48.800;9.002;2023-05-07T03:58:25;10.30;96.90
212;DHT22;16228;48.800;9.002;2023-05-07T04:00:53;10.30;96.90
212;DHT22;16228;48.800;9.002;2023-05-07T04:03:20;10.30;96.90
212;DHT22;16228;48.800;9.002;2023-05-07T04:05:47;10.20;96.90
212;DHT22;16228;48.800;9.002;2023-05-07T04:08:14;10.30;96.90
212;DHT22;16228;48.800;9.002;2023-05-07T04:10:41;10.30;96.90
212;DHT22;16228;48.800;9.002;2023-05-07T04:13:09;10.40;96.90
212;DHT22;16228;48.800;9.002;2023-05-07T04:15:37;10.30;96.90
212;DHT22;16228;48.800;9.002;2023-05-07T04:18:04;10.40;96.90
212;DHT22;16228;48.800;9.002;2023-05-07T04:20:34;10.30;96.90
212;DHT22;16228;48.800;9.002;2023-05-07T04:23:02;10.40;96.90
212;DHT22;16228;48.800;9.002;2023-05-07T04:25:29;10.40;96.90
212;DHT22;16228;48.800;9.002;2023-05-07T04:27:56;10.40;96.90
212;DHT22;16228;48.800;9.002;2023-05-07T04:30:24;10.40;96.90
212;DHT22;16228;48.800;9.002;2023-05-07T04:32:52;10.40;96.90
212;DHT22;16228;48.800;9.002;2023-05-07T04:35:20;10.40;96.90
212;DHT22;16228;48.800;9.002;2023-05-07T04:37:47;10.50;96.90
212;DHT22;16228;48.800;9.002;2023-05-07T04:40:14;10.50;96.90
212;DHT22;16228;48.800;9.002;2023-05-07T04:42:41;10.50;96.90
212;DHT22;16228;48.800;9.002;2023-05-07T04:45:09;10.60;96.90
212;DHT22;16228;48.800;9.002;2023-05-07T04:47:38;10.60;96.90
212;DHT22;16228;48.800;9.002;2023-05-07T04:50:07;10.60;96.90
212;DHT22;16228;48.800;9.002;2023-05-07T04:52:35;10.60;96.90
212;DHT22;16228;48.800;9.002;2023-05-07T04:55:02;10.60;96.90
212;DHT22;16228;48.800;9.002;2023-05-07T04:57:30;10.70;96.90
212;DHT22;16228;48.800;9.002;2023-05-07T04:59:57;10.70;96.90
212;DHT22;16228;48.800;9.002;2023-05-07T05:02:24;10.80;96.90
212;DHT22;16228;48.800;9.002;2023-05-07T05:04:51;10.80;96.90
212;DHT22;16228;48.800;9.002;2023-05-07T05:07:20;10.80;96.90
212;DHT22;16228;48.800;9.002;2023-05-07T05:09:47;10.90;96.90
212;DHT22;16228;48.800;9.002;2023-05-07T05:12:14;11.00;96.90
212;DHT22;16228;48.800;9.002;2023-05-07T05:14:41;11.00;96.90
212;DHT22;16228;48.800;9.002;2023-05-07T05:17:08;10.90;96.90
212;DHT22;16228;48.800;9.002;2023-05-07T05:19:36;11.10;96.90
212;DHT22;16228;48.800;9.002;2023-05-07T05:22:03;11.20;96.90
212;DHT22;16228;48.800;9.002;2023-05-07T05:24:32;11.40;96.90
212;DHT22;16228;48.800;9.002;2023-05-07T05:26:59;11.50;96.90
212;DHT22;16228;48.800;9.002;2023-05-07T05:29:27;11.60;96.90
212;DHT22;16228;48.800;9.002;2023-05-07T05:31:54;11.80;96.90
212;DHT22;16228;48.800;9.002;2023-05-07T05:34:21;12.00;96.90
212;DHT22;16228;48.800;9.002;2023-05-07T05:36:48;12.20;96.90
212;DHT22;16228;48.800;9.002;2023-05-07T05:39:15;12.30;96.90
212;DHT22;16228;48.800;9.002;2023-05-07T05:41:44;12.40;96.90
212;DHT22;16228;48.800;9.002;2023-05-07T05:44:12;12.60;96.90
212;DHT22;16228;48.800;9.002;2023-05-07T05:46:39;12.80;96.90
212;DHT22;16228;48.800;9.002;2023-05-07T05:49:06;12.90;96.90
212;DHT22;16228;48.800;9.002;2023-05-07T05:51:34;13.20;96.90
212;DHT22;16228;48.800;9.002;2023-05-07T05:54:01;13.50;96.90
212;DHT22;16228;48.800;9.002;2023-05-07T05:56:28;14.00;96.90
212;DHT22;16228;48.800;9.002;2023-05-07T05:58:57;14.50;96.90
212;DHT22;16228;48.800;9.002;2023-05-07T06:01:24;14.90;96.90
212;DHT22;16228;48.800;9.002;2023-05-07T06:03:51;15.10;96.90
212;DHT22;16228;48.800;9.002;2023-05-07T06:06:18;15.30;96.90
212;DHT22;16228;48.800;9.002;2023-05-07T06:08:46;15.50;96.90
212;DHT22;16228;48.800;9.002;2023-05-07T06:11:13;15.50;96.90
212;DHT22;16228;48.800;9.002;2023-05-07T06:13:40;15.40;96.90
212;DHT22;16228;48.800;9.002;2023-05-07T06:16:09;15.50;96.90
212;DHT22;16228;48.800;9.002;2023-05-07T06:18:36;15.50;96.90
212;DHT22;16228;48.800;9.002;2023-05-07T06:21:03;15.60;96.90
212;DHT22;16228;48.800;9.002;2023-05-07T06:23:30;15.50;96.90
212;DHT22;16228;48.800;9.002;2023-05-07T06:25:58;15.60;96.90
212;DHT22;16228;48.800;9.002;2023-05-07T06:28:25;15.70;96.90
212;DHT22;16228;48.800;9.002;2023-05-07T06:30:53;15.90;96.90
212;DHT22;16228;48.800;9.002;2023-05-07T06:33:21;16.10;96.90
212;DHT22;16228;48.800;9.002;2023-05-07T06:35:48;16.20;96.90
212;DHT22;16228;48.800;9.002;2023-05-07T06:38:15;16.50;96.90
212;DHT22;16228;48.800;9.002;2023-05-07T06:40:43;16.90;96.90
212;DHT22;16228;48.800;9.002;2023-05-07T06:43:10;17.70;96.90
212;DHT22;16228;48.800;9.002;2023-05-07T06:45:37;18.50;96.90
212;DHT22;16228;48.800;9.002;2023-05-07T06:48:04;19.10;96.90
212;DHT22;16228;48.800;9.002;2023-05-07T06:50:33;19.50;96.90
212;DHT22;16228;48.800;9.002;2023-05-07T06:53:00;19.80;96.90
212;DHT22;16228;48.800;9.002;2023-05-07T06:55:27;20.20;96.90
212;DHT22;16228;48.800;9.002;2023-05-07T06:57:54;20.90;96.90
212;DHT22;16228;48.800;9.002;2023-05-07T07:00:23;21.90;96.90
212;DHT22;16228;48.800;9.002;2023-05-07T07:02:51;23.10;94.10
212;DHT22;16228;48.800;9.002;2023-05-07T07:05:18;23.90;91.30
212;DHT22;16228;48.800;9.002;2023-05-07T07:07:46;24.90;87.90
212;DHT22;16228;48.800;9.002;2023-05-07T07:10:18;25.70;87.60
212;DHT22;16228;48.800;9.002;2023-05-07T07:12:45;26.40;85.70
212;DHT22;16228;48.800;9.002;2023-05-07T07:15:13;27.00;83.50
212;DHT22;16228;48.800;9.002;2023-05-07T07:17:40;27.70;80.10
212;DHT22;16228;48.800;9.002;2023-05-07T07:20:08;28.10;79.30
212;DHT22;16228;48.800;9.002;2023-05-07T07:22:36;28.10;78.40
212;DHT22;16228;48.800;9.002;2023-05-07T07:25:05;28.10;77.90
212;DHT22;16228;48.800;9.002;2023-05-07T07:27:32;28.30;79.10
212;DHT22;16228;48.800;9.002;2023-05-07T07:29:59;28.40;80.90
212;DHT22;16228;48.800;9.002;2023-05-07T07:32:26;28.40;78.20
212;DHT22;16228;48.800;9.002;2023-05-07T07:34:53;28.20;78.20
212;DHT22;16228;48.800;9.002;2023-05-07T07:37:21;28.00;77.30
212;DHT22;16228;48.800;9.002;2023-05-07T07:39:48;27.60;78.10
212;DHT22;16228;48.800;9.002;2023-05-07T07:42:16;27.30;78.00
212;DHT22;16228;48.800;9.002;2023-05-07T07:44:44;26.90;82.30
212;DHT22;16228;48.800;9.002;2023-05-07T07:47:11;26.10;80.60
212;DHT22;16228;48.800;9.002;2023-05-07T07:49:38;25.70;86.50
212;DHT22;16228;48.800;9.002;2023-05-07T07:52:05;25.10;83.60
212;DHT22;16228;48.800;9.002;2023-05-07T07:54:32;24.40;86.40
212;DHT22;16228;48.800;9.002;2023-05-07T07:56:59;24.00;90.30
212;DHT22;16228;48.800;9.002;2023-05-07T07:59:28;23.90;91.20
212;DHT22;16228;48.800;9.002;2023-05-07T08:01:55;23.80;91.00
212;DHT22;16228;48.800;9.002;2023-05-07T08:04:23;23.80;94.00
212;DHT22;16228;48.800;9.002;2023-05-07T08:06:50;24.10;93.50
212;DHT22;16228;48.800;9.002;2023-05-07T08:09:17;24.30;92.80
212;DHT22;16228;48.800;9.002;2023-05-07T08:11:44;24.90;91.10
212;DHT22;16228;48.800;9.002;2023-05-07T08:14:11;25.50;89.00
212;DHT22;16228;48.800;9.002;2023-05-07T08:16:40;26.50;87.80
212;DHT22;16228;48.800;9.002;2023-05-07T08:19:07;27.40;84.70
212;DHT22;16228;48.800;9.002;2023-05-07T08:21:34;28.10;84.70
212;DHT22;16228;48.800;9.002;2023-05-07T08:24:02;28.20;81.00
212;DHT22;16228;48.800;9.002;2023-05-07T08:26:29;27.80;81.00
212;DHT22;16228;48.800;9.002;2023-05-07T08:28:56;27.40;82.40
212;DHT22;16228;48.800;9.002;2023-05-07T08:31:23;27.40;84.80
212;DHT22;16228;48.800;9.002;2023-05-07T08:33:52;27.90;85.60
212;DHT22;16228;48.800;9.002;2023-05-07T08:36:19;28.70;81.80
212;DHT22;16228;48.800;9.002;2023-05-07T08:38:46;29.40;79.60
212;DHT22;16228;48.800;9.002;2023-05-07T08:41:13;29.90;76.90
212;DHT22;16228;48.800;9.002;2023-05-07T08:43:41;30.30;78.60
212;DHT22;16228;48.800;9.002;2023-05-07T08:46:09;31.10;76.30
212;DHT22;16228;48.800;9.002;2023-05-07T08:48:37;31.90;73.60
212;DHT22;16228;48.800;9.002;2023-05-07T08:51:05;31.90;71.70
212;DHT22;16228;48.800;9.002;2023-05-07T08:53:33;31.90;72.80
212;DHT22;16228;48.800;9.002;2023-05-07T08:56:00;32.30;69.00
212;DHT22;16228;48.800;9.002;2023-05-07T08:58:28;33.10;70.60
212;DHT22;16228;48.800;9.002;2023-05-07T09:00:55;34.00;69.70
212;DHT22;16228;48.800;9.002;2023-05-07T09:03:22;34.60;69.40
212;DHT22;16228;48.800;9.002;2023-05-07T09:05:49;35.00;66.40
212;DHT22;16228;48.800;9.002;2023-05-07T09:08:18;35.20;66.30
212;DHT22;16228;48.800;9.002;2023-05-07T09:10:45;35.10;65.30
212;DHT22;16228;48.800;9.002;2023-05-07T09:13:14;34.80;63.80
212;DHT22;16228;48.800;9.002;2023-05-07T09:15:43;35.10;65.90
212;DHT22;16228;48.800;9.002;2023-05-07T09:18:11;35.70;63.70
212;DHT22;16228;48.800;9.002;2023-05-07T09:20:39;36.10;62.80
212;DHT22;16228;48.800;9.002;2023-05-07T09:23:06;36.10;61.50
212;DHT22;16228;48.800;9.002;2023-05-07T09:25:36;35.80;64.20
212;DHT22;16228;48.800;9.002;2023-05-07T09:28:04;36.00;63.10
212;DHT22;16228;48.800;9.002;2023-05-07T09:30:33;36.10;61.90
212;DHT22;16228;48.800;9.002;2023-05-07T09:33:03;36.00;62.40
212;DHT22;16228;48.800;9.002;2023-05-07T09:35:30;36.30;63.30
212;DHT22;16228;48.800;9.002;2023-05-07T09:37:58;36.50;63.40
212;DHT22;16228;48.800;9.002;2023-05-07T09:40:27;36.70;64.30
212;DHT22;16228;48.800;9.002;2023-05-07T09:42:56;37.10;62.40
212;DHT22;16228;48.800;9.002;2023-05-07T09:45:25;37.40;62.10
212;DHT22;16228;48.800;9.002;2023-05-07T09:47:54;37.40;60.30
212;DHT22;16228;48.800;9.002;2023-05-07T09:50:27;37.80;59.50
212;DHT22;16228;48.800;9.002;2023-05-07T09:52:55;37.50;59.40
212;DHT22;16228;48.800;9.002;2023-05-07T09:55:23;36.70;59.50
212;DHT22;16228;48.800;9.002;2023-05-07T09:57:51;35.00;62.20
212;DHT22;16228;48.800;9.002;2023-05-07T10:00:21;34.00;61.10
212;DHT22;16228;48.800;9.002;2023-05-07T10:02:50;32.90;64.10
212;DHT22;16228;48.800;9.002;2023-05-07T10:05:18;32.40;65.90
212;DHT22;16228;48.800;9.002;2023-05-07T10:07:46;33.10;65.20
212;DHT22;16228;48.800;9.002;2023-05-07T10:10:14;32.70;66.80
212;DHT22;16228;48.800;9.002;2023-05-07T10:12:42;32.00;72.00
212;DHT22;16228;48.800;9.002;2023-05-07T10:15:10;31.10;67.30
212;DHT22;16228;48.800;9.002;2023-05-07T10:17:39;30.50;72.40
212;DHT22;16228;48.800;9.002;2023-05-07T10:20:07;30.10;73.20
212;DHT22;16228;48.800;9.002;2023-05-07T10:22:38;29.90;76.80
212;DHT22;16228;48.800;9.002;2023-05-07T10:25:09;29.40;76.70
212;DHT22;16228;48.800;9.002;2023-05-07T10:27:42;28.70;76.20
212;DHT22;16228;48.800;9.002;2023-05-07T10:30:15;28.00;76.50
212;DHT22;16228;48.800;9.002;2023-05-07T10:32:54;27.40;77.80
212;DHT22;16228;48.800;9.002;2023-05-07T10:35:24;27.00;81.70
212;DHT22;16228;48.800;9.002;2023-05-07T10:37:52;26.90;83.90
212;DHT22;16228;48.800;9.002;2023-05-07T10:40:20;26.90;82.90
212;DHT22;16228;48.800;9.002;2023-05-07T10:42:55;26.90;82.80
212;DHT22;16228;48.800;9.002;2023-05-07T10:45:23;26.90;84.80
212;DHT22;16228;48.800;9.002;2023-05-07T10:48:16;26.70;82.90
212;DHT22;16228;48.800;9.002;2023-05-07T10:50:44;26.30;82.30
212;DHT22;16228;48.800;9.002;2023-05-07T10:53:25;26.10;84.10
212;DHT22;16228;48.800;9.002;2023-05-07T10:56:24;25.90;85.20
212;DHT22;16228;48.800;9.002;2023-05-07T10:58:55;25.70;84.20
212;DHT22;16228;48.800;9.002;2023-05-07T11:01:56;25.40;87.90
212;DHT22;16228;48.800;9.002;2023-05-07T11:04:25;25.10;86.30
212;DHT22;16228;48.800;9.002;2023-05-07T11:07:24;25.00;85.70
212;DHT22;16228;48.800;9.002;2023-05-07T11:10:00;25.10;88.80
212;DHT22;16228;48.800;9.002;2023-05-07T11:12:49;24.90;87.30
212;DHT22;16228;48.800;9.002;2023-05-07T11:15:34;24.80;87.40
212;DHT22;16228;48.800;9.002;2023-05-07T11:18:02;24.60;86.10
212;DHT22;16228;48.800;9.002;2023-05-07T11:20:49;24.50;88.90
212;DHT22;16228;48.800;9.002;2023-05-07T11:23:54;24.50;89.60
212;DHT22;16228;48.800;9.002;2023-05-07T11:26:22;24.40;88.80
212;DHT22;16228;48.800;9.002;2023-05-07T11:28:49;24.20;89.90
212;DHT22;16228;48.800;9.002;2023-05-07T11:31:21;23.90;91.30
212;DHT22;16228;48.800;9.002;2023-05-07T11:33:48;23.80;91.70
212;DHT22;16228;48.800;9.002;2023-05-07T11:36:18;23.70;91.50
212;DHT22;16228;48.800;9.002;2023-05-07T11:38:46;23.50;91.80
212;DHT22;16228;48.800;9.002;2023-05-07T11:41:13;23.30;93.50
212;DHT22;16228;48.800;9.002;2023-05-07T11:43:57;23.20;94.70
212;DHT22;16228;48.800;9.002;2023-05-07T11:46:26;23.10;94.90
212;DHT22;16228;48.800;9.002;2023-05-07T11:48:54;23.00;94.30
212;DHT22;16228;48.800;9.002;2023-05-07T11:51:24;22.90;95.60
212;DHT22;16228;48.800;9.002;2023-05-07T11:53:52;22.90;95.70
212;DHT22;16228;48.800;9.002;2023-05-07T11:56:19;22.80;95.10
212;DHT22;16228;48.800;9.002;2023-05-07T11:58:47;22.80;95.10
212;DHT22;16228;48.800;9.002;2023-05-07T12:01:15;22.70;94.70
212;DHT22;16228;48.800;9.002;2023-05-07T12:03:45;22.70;94.70
212;DHT22;16228;48.800;9.002;2023-05-07T12:06:14;22.50;96.70
212;DHT22;16228;48.800;9.002;2023-05-07T12:08:44;21.80;96.90
212;DHT22;16228;48.800;9.002;2023-05-07T12:11:14;21.10;96.90
212;DHT22;16228;48.800;9.002;2023-05-07T12:13:43;20.60;96.90
212;DHT22;16228;48.800;9.002;2023-05-07T12:16:11;20.10;96.90
212;DHT22;16228;48.800;9.002;2023-05-07T12:18:38;19.80;96.90
212;DHT22;16228;48.800;9.002;2023-05-07T12:21:06;19.50;96.90
212;DHT22;16228;48.800;9.002;2023-05-07T12:23:35;19.30;96.90
212;DHT22;16228;48.800;9.002;2023-05-07T12:26:04;19.10;96.90
212;DHT22;16228;48.800;9.002;2023-05-07T12:28:35;18.90;96.90
212;DHT22;16228;48.800;9.002;2023-05-07T12:31:04;18.70;96.90
212;DHT22;16228;48.800;9.002;2023-05-07T12:33:32;18.40;96.90
212;DHT22;16228;48.800;9.002;2023-05-07T12:36:03;18.20;96.90
212;DHT22;16228;48.800;9.002;2023-05-07T12:38:35;18.10;96.90
212;DHT22;16228;48.800;9.002;2023-05-07T12:41:05;18.00;96.90
212;DHT22;16228;48.800;9.002;2023-05-07T12:43:33;17.60;96.90
212;DHT22;16228;48.800;9.002;2023-05-07T12:46:03;17.50;96.90
212;DHT22;16228;48.800;9.002;2023-05-07T12:48:30;17.20;96.90
212;DHT22;16228;48.800;9.002;2023-05-07T12:50:59;17.00;96.90
212;DHT22;16228;48.800;9.002;2023-05-07T12:53:28;16.90;96.90
212;DHT22;16228;48.800;9.002;2023-05-07T12:55:57;17.10;96.90
212;DHT22;16228;48.800;9.002;2023-05-07T12:58:27;17.10;96.90
212;DHT22;16228;48.800;9.002;2023-05-07T13:00:55;17.20;96.90
212;DHT22;16228;48.800;9.002;2023-05-07T13:03:26;17.10;96.90
212;DHT22;16228;48.800;9.002;2023-05-07T13:05:55;17.10;96.90
212;DHT22;16228;48.800;9.002;2023-05-07T13:08:30;17.10;96.90
212;DHT22;16228;48.800;9.002;2023-05-07T13:10:58;17.10;96.90
212;DHT22;16228;48.800;9.002;2023-05-07T13:13:30;16.70;96.90
212;DHT22;16228;48.800;9.002;2023-05-07T13:15:57;16.60;96.90
212;DHT22;16228;48.800;9.002;2023-05-07T13:18:25;16.60;96.90
212;DHT22;16228;48.800;9.002;2023-05-07T13:20:52;16.70;96.90
212;DHT22;16228;48.800;9.002;2023-05-07T13:23:20;16.80;96.90
212;DHT22;16228;48.800;9.002;2023-05-07T13:25:48;16.90;96.90
212;DHT22;16228;48.800;9.002;2023-05-07T13:28:16;16.90;96.90
212;DHT22;16228;48.800;9.002;2023-05-07T13:30:45;16.90;96.90
212;DHT22;16228;48.800;9.002;2023-05-07T13:33:12;16.90;96.90
212;DHT22;16228;48.800;9.002;2023-05-07T13:35:39;16.70;96.90
212;DHT22;16228;48.800;9.002;2023-05-07T13:38:07;16.60;96.90
212;DHT22;16228;48.800;9.002;2023-05-07T13:40:34;16.60;96.90
212;DHT22;16228;48.800;9.002;2023-05-07T13:43:01;16.70;96.90
212;DHT22;16228;48.800;9.002;2023-05-07T13:45:28;16.60;96.90
212;DHT22;16228;48.800;9.002;2023-05-07T13:47:57;16.60;96.90
212;DHT22;16228;48.800;9.002;2023-05-07T13:50:25;16.70;96.90
212;DHT22;16228;48.800;9.002;2023-05-07T13:52:54;16.80;96.90
212;DHT22;16228;48.800;9.002;2023-05-07T13:55:23;16.90;96.90
212;DHT22;16228;48.800;9.002;2023-05-07T13:57:55;17.00;96.90
212;DHT22;16228;48.800;9.002;2023-05-07T14:00:23;17.10;96.90
212;DHT22;16228;48.800;9.002;2023-05-07T14:02:50;17.20;96.90
212;DHT22;16228;48.800;9.002;2023-05-07T14:05:19;17.20;96.90
212;DHT22;16228;48.800;9.002;2023-05-07T14:07:46;17.30;96.90
212;DHT22;16228;48.800;9.002;2023-05-07T14:10:14;17.30;96.90
212;DHT22;16228;48.800;9.002;2023-05-07T14:12:42;17.30;96.90
212;DHT22;16228;48.800;9.002;2023-05-07T14:15:09;17.40;96.90
212;DHT22;16228;48.800;9.002;2023-05-07T14:17:37;17.40;96.90
212;DHT22;16228;48.800;9.002;2023-05-07T14:20:05;17.40;96.90
212;DHT22;16228;48.800;9.002;2023-05-07T14:22:34;17.30;96.90
212;DHT22;16228;48.800;9.002;2023-05-07T14:25:01;17.20;96.90
212;DHT22;16228;48.800;9.002;2023-05-07T14:27:29;17.20;96.90
212;DHT22;16228;48.800;9.002;2023-05-07T14:29:56;17.10;96.90
212;DHT22;16228;48.800;9.002;2023-05-07T14:32:23;17.10;96.90
212;DHT22;16228;48.800;9.002;2023-05-07T14:34:50;17.10;96.90
212;DHT22;16228;48.800;9.002;2023-05-07T14:37:17;17.10;96.90
212;DHT22;16228;48.800;9.002;2023-05-07T14:39:47;17.00;96.90
212;DHT22;16228;48.800;9.002;2023-05-07T14:42:14;17.10;96.90
212;DHT22;16228;48.800;9.002;2023-05-07T14:44:41;17.00;96.90
212;DHT22;16228;48.800;9.002;2023-05-07T14:47:08;17.00;96.90
212;DHT22;16228;48.800;9.002;2023-05-07T14:49:35;17.00;96.90
212;DHT22;16228;48.800;9.002;2023-05-07T14:52:03;17.10;96.90
212;DHT22;16228;48.800;9.002;2023-05-07T14:54:34;17.20;96.90
212;DHT22;16228;48.800;9.002;2023-05-07T14:57:04;17.30;96.90
212;DHT22;16228;48.800;9.002;2023-05-07T14:59:31;17.40;96.90
212;DHT22;16228;48.800;9.002;2023-05-07T15:01:59;17.60;96.90
212;DHT22;16228;48.800;9.002;2023-05-07T15:04:26;17.40;96.90
212;DHT22;16228;48.800;9.002;2023-05-07T15:06:53;17.50;96.90
212;DHT22;16228;48.800;9.002;2023-05-07T15:09:21;17.60;96.90
212;DHT22;16228;48.800;9.002;2023-05-07T15:11:49;17.70;96.90
212;DHT22;16228;48.800;9.002;2023-05-07T15:14:17;17.70;96.90
212;DHT22;16228;48.800;9.002;2023-05-07T15:16:45;17.80;96.90
212;DHT22;16228;48.800;9.002;2023-05-07T15:19:12;17.90;96.90
212;DHT22;16228;48.800;9.002;2023-05-07T15:21:40;17.90;96.90
212;DHT22;16228;48.800;9.002;2023-05-07T15:24:08;18.00;96.90
212;DHT22;16228;48.800;9.002;2023-05-07T15:26:35;18.20;96.90
212;DHT22;16228;48.800;9.002;2023-05-07T15:29:02;18.30;96.90
212;DHT22;16228;48.800;9.002;2023-05-07T15:31:35;18.40;96.90
212;DHT22;16228;48.800;9.002;2023-05-07T15:34:03;18.50;96.90
212;DHT22;16228;48.800;9.002;2023-05-07T15:36:30;18.60;96.90
212;DHT22;16228;48.800;9.002;2023-05-07T15:38:58;18.60;96.90
212;DHT22;16228;48.800;9.002;2023-05-07T15:41:25;18.70;96.90
212;DHT22;16228;48.800;9.002;2023-05-07T15:43:53;18.70;96.90
212;DHT22;16228;48.800;9.002;2023-05-07T15:46:22;18.70;96.90
212;DHT22;16228;48.800;9.002;2023-05-07T15:48:52;18.70;96.90
212;DHT22;16228;48.800;9.002;2023-05-07T15:51:19;18.80;96.90
212;DHT22;16228;48.800;9.002;2023-05-07T15:53:47;18.80;96.90
212;DHT22;16228;48.800;9.002;2023-05-07T15:56:15;18.80;96.90
212;DHT22;16228;48.800;9.002;2023-05-07T15:58:42;18.80;96.90
212;DHT22;16228;48.800;9.002;2023-05-07T16:01:09;18.80;96.90
212;DHT22;16228;48.800;9.002;2023-05-07T16:03:36;18.90;96.90
212;DHT22;16228;48.800;9.002;2023-05-07T16:06:06;19.00;96.90
212;DHT22;16228;48.800;9.002;2023-05-07T16:08:35;19.10;96.90
212;DHT22;16228;48.800;9.002;2023-05-07T16:11:04;19.10;96.90